Portada
METAR-TAF:

METAR-TAF

Aeroports :

Aeroport Internacional de Bahrain

Bahrain, Bahrain

latitud: 26-16N, longitud: 050-39E, altitud: 2 m

Observació

L'informe es va fer fa 29 minuts, a les 23:00 UTC
Vent 1 kt amb direcció variable
Temperatura 25°C
Humitat 41%
Pressió 1017 hPa
Visibilitat 10 km o més
sense núvols per sota de 1500 mi sense presència de cumulonimbus.

METAR: OBBI 132300Z VRB01KT CAVOK 25/11 Q1017 NOSIG

Hora: 02:29 (23:29 UTC)

Pronòstic

L'informe es va fer fa 6 hores i 29 minuts, a les 17:00 UTC
Pronòstic vàlid del 13 a les 18 UTC al 15 a les 00 UTC
Vent 8 kt del Nord
Visibilitat 10 km o més
sense núvols per sota de 1500 mi sense presència de cumulonimbus.

TAF: OBBI 131700Z 1318/1500 36008KT CAVOK

Observacions i pronòstics meteorològics de més de 4000 aeroports (METAR i TAF).

Les estacions disponibles són els punts grocs i vermells al mapa.

Posi el ratolí al punt desitjat per veure el nom de l'estació.

Feu clic per veure les observacions i els pronòstics meteorològics.

Per canviar el mapa: feu clic els botons verds amb una creu de color negre per apropar; al botó verd amb un guió per allunyar la imatge; o en les fletxes verdes per a mapes adjacents.


METAR-TAF: